sensor_id;sensor_type;location;lat;lon;timestamp;pressure;altitude;pressure_sealevel;temperature;humidity
12209;BME280;6167;43.080;25.634;2022-07-23T00:00:44;99549.03;;;21.92;100.00
12209;BME280;6167;43.080;25.634;2022-07-23T00:03:12;99559.16;;;22.00;100.00
12209;BME280;6167;43.080;25.634;2022-07-23T00:05:39;99557.44;;;22.09;100.00
12209;BME280;6167;43.080;25.634;2022-07-23T00:08:07;99554.72;;;22.09;98.61
12209;BME280;6167;43.080;25.634;2022-07-23T00:10:34;99566.03;;;21.83;99.60
12209;BME280;6167;43.080;25.634;2022-07-23T00:13:02;99565.28;;;21.52;100.00
12209;BME280;6167;43.080;25.634;2022-07-23T00:15:29;99556.31;;;21.42;100.00
12209;BME280;6167;43.080;25.634;2022-07-23T00:17:56;99563.09;;;21.27;100.00
12209;BME280;6167;43.080;25.634;2022-07-23T00:20:23;99557.31;;;21.32;100.00
12209;BME280;6167;43.080;25.634;2022-07-23T00:22:52;99551.09;;;21.41;100.00
12209;BME280;6167;43.080;25.634;2022-07-23T00:25:22;99553.53;;;21.53;100.00
12209;BME280;6167;43.080;25.634;2022-07-23T00:27:49;99558.78;;;21.65;100.00
12209;BME280;6167;43.080;25.634;2022-07-23T00:30:15;99551.72;;;21.73;100.00
12209;BME280;6167;43.080;25.634;2022-07-23T00:32:46;99554.56;;;21.81;100.00
12209;BME280;6167;43.080;25.634;2022-07-23T00:35:13;99544.06;;;21.88;100.00
12209;BME280;6167;43.080;25.634;2022-07-23T00:37:40;99542.94;;;21.90;100.00
12209;BME280;6167;43.080;25.634;2022-07-23T00:40:09;99539.97;;;21.84;98.88
12209;BME280;6167;43.080;25.634;2022-07-23T00:42:38;99545.19;;;21.85;100.00
12209;BME280;6167;43.080;25.634;2022-07-23T00:45:05;99553.84;;;21.70;100.00
12209;BME280;6167;43.080;25.634;2022-07-23T00:47:33;99547.91;;;21.76;100.00
12209;BME280;6167;43.080;25.634;2022-07-23T00:50:00;99547.91;;;21.85;100.00
12209;BME280;6167;43.080;25.634;2022-07-23T00:52:28;99548.47;;;21.89;100.00
12209;BME280;6167;43.080;25.634;2022-07-23T00:54:55;99546.34;;;21.92;100.00
12209;BME280;6167;43.080;25.634;2022-07-23T00:57:22;99548.91;;;21.94;99.21
12209;BME280;6167;43.080;25.634;2022-07-23T00:59:51;99541.53;;;21.96;100.00
12209;BME280;6167;43.080;25.634;2022-07-23T01:02:18;99548.34;;;21.90;100.00
12209;BME280;6167;43.080;25.634;2022-07-23T01:04:45;99554.97;;;21.57;100.00
12209;BME280;6167;43.080;25.634;2022-07-23T01:07:12;99550.50;;;21.27;100.00
12209;BME280;6167;43.080;25.634;2022-07-23T01:09:39;99544.16;;;21.08;100.00
12209;BME280;6167;43.080;25.634;2022-07-23T01:12:07;99546.78;;;21.19;100.00
12209;BME280;6167;43.080;25.634;2022-07-23T01:14:34;99551.13;;;21.10;100.00
12209;BME280;6167;43.080;25.634;2022-07-23T01:17:02;99539.81;;;20.76;100.00
12209;BME280;6167;43.080;25.634;2022-07-23T01:19:29;99540.81;;;20.85;100.00
12209;BME280;6167;43.080;25.634;2022-07-23T01:21:58;99553.34;;;21.05;100.00
12209;BME280;6167;43.080;25.634;2022-07-23T01:24:27;99544.50;;;21.14;100.00
12209;BME280;6167;43.080;25.634;2022-07-23T01:26:54;99538.72;;;21.19;100.00
12209;BME280;6167;43.080;25.634;2022-07-23T01:29:21;99546.94;;;21.27;100.00
12209;BME280;6167;43.080;25.634;2022-07-23T01:31:48;99540.19;;;21.33;100.00
12209;BME280;6167;43.080;25.634;2022-07-23T01:34:15;99540.50;;;21.39;100.00
12209;BME280;6167;43.080;25.634;2022-07-23T01:36:42;99535.13;;;21.39;100.00
12209;BME280;6167;43.080;25.634;2022-07-23T01:39:09;99540.91;;;21.44;100.00
12209;BME280;6167;43.080;25.634;2022-07-23T01:41:37;99540.19;;;21.42;100.00
12209;BME280;6167;43.080;25.634;2022-07-23T01:44:04;99540.78;;;21.46;100.00
12209;BME280;6167;43.080;25.634;2022-07-23T01:46:31;99543.31;;;21.47;100.00
12209;BME280;6167;43.080;25.634;2022-07-23T01:48:57;99544.88;;;21.50;100.00
12209;BME280;6167;43.080;25.634;2022-07-23T01:51:24;99547.03;;;21.56;100.00
12209;BME280;6167;43.080;25.634;2022-07-23T01:53:51;99545.31;;;21.55;100.00
12209;BME280;6167;43.080;25.634;2022-07-23T01:56:18;99543.19;;;21.49;100.00
12209;BME280;6167;43.080;25.634;2022-07-23T01:58:47;99546.88;;;21.48;100.00
12209;BME280;6167;43.080;25.634;2022-07-23T02:01:15;99550.75;;;21.24;100.00
12209;BME280;6167;43.080;25.634;2022-07-23T02:03:42;99538.44;;;21.22;100.00
12209;BME280;6167;43.080;25.634;2022-07-23T02:06:09;99541.16;;;21.32;100.00
12209;BME280;6167;43.080;25.634;2022-07-23T02:08:35;99540.31;;;21.41;100.00
12209;BME280;6167;43.080;25.634;2022-07-23T02:11:02;99548.44;;;21.50;100.00
12209;BME280;6167;43.080;25.634;2022-07-23T02:13:29;99534.72;;;21.53;100.00
12209;BME280;6167;43.080;25.634;2022-07-23T02:15:57;99543.78;;;21.72;100.00
12209;BME280;6167;43.080;25.634;2022-07-23T02:18:24;99537.59;;;21.81;100.00
12209;BME280;6167;43.080;25.634;2022-07-23T02:20:51;99543.94;;;21.89;100.00
12209;BME280;6167;43.080;25.634;2022-07-23T02:23:18;99549.03;;;21.92;100.00
12209;BME280;6167;43.080;25.634;2022-07-23T02:25:45;99538.13;;;21.94;100.00
12209;BME280;6167;43.080;25.634;2022-07-23T02:28:12;99543.72;;;22.02;100.00
12209;BME280;6167;43.080;25.634;2022-07-23T02:30:40;99533.09;;;22.01;100.00
12209;BME280;6167;43.080;25.634;2022-07-23T02:33:08;99547.38;;;22.01;100.00
12209;BME280;6167;43.080;25.634;2022-07-23T02:35:35;99546.41;;;22.02;100.00
12209;BME280;6167;43.080;25.634;2022-07-23T02:41:23;99553.75;;;22.00;100.00
12209;BME280;6167;43.080;25.634;2022-07-23T02:43:50;99560.09;;;21.99;100.00
12209;BME280;6167;43.080;25.634;2022-07-23T02:46:17;99562.38;;;22.04;100.00
12209;BME280;6167;43.080;25.634;2022-07-23T02:48:51;99557.16;;;22.02;100.00
12209;BME280;6167;43.080;25.634;2022-07-23T02:51:17;99566.63;;;22.06;100.00
12209;BME280;6167;43.080;25.634;2022-07-23T02:53:44;99555.31;;;22.03;100.00
12209;BME280;6167;43.080;25.634;2022-07-23T02:56:11;99555.00;;;22.06;100.00
12209;BME280;6167;43.080;25.634;2022-07-23T02:58:38;99559.28;;;22.08;100.00
12209;BME280;6167;43.080;25.634;2022-07-23T03:01:05;99567.34;;;22.08;100.00
12209;BME280;6167;43.080;25.634;2022-07-23T03:03:32;99563.41;;;22.03;100.00
12209;BME280;6167;43.080;25.634;2022-07-23T03:06:00;99572.03;;;22.06;100.00
12209;BME280;6167;43.080;25.634;2022-07-23T03:08:27;99569.03;;;22.09;100.00
12209;BME280;6167;43.080;25.634;2022-07-23T03:10:53;99577.84;;;22.11;100.00
12209;BME280;6167;43.080;25.634;2022-07-23T03:13:20;99582.81;;;22.16;98.67
12209;BME280;6167;43.080;25.634;2022-07-23T03:15:47;99583.09;;;22.13;100.00
12209;BME280;6167;43.080;25.634;2022-07-23T03:18:14;99581.53;;;22.10;100.00
12209;BME280;6167;43.080;25.634;2022-07-23T03:20:41;99585.19;;;22.09;100.00
12209;BME280;6167;43.080;25.634;2022-07-23T03:23:09;99588.03;;;22.08;100.00
12209;BME280;6167;43.080;25.634;2022-07-23T03:25:36;99596.50;;;21.93;100.00
12209;BME280;6167;43.080;25.634;2022-07-23T03:28:04;99592.06;;;21.64;100.00
12209;BME280;6167;43.080;25.634;2022-07-23T03:30:31;99595.47;;;21.25;100.00
12209;BME280;6167;43.080;25.634;2022-07-23T03:32:57;99593.38;;;21.29;100.00
12209;BME280;6167;43.080;25.634;2022-07-23T03:35:24;99596.00;;;20.89;100.00
12209;BME280;6167;43.080;25.634;2022-07-23T03:37:51;99586.13;;;20.69;100.00
12209;BME280;6167;43.080;25.634;2022-07-23T03:40:20;99597.22;;;20.54;100.00
12209;BME280;6167;43.080;25.634;2022-07-23T03:42:46;99596.03;;;20.68;100.00
12209;BME280;6167;43.080;25.634;2022-07-23T03:45:13;99602.84;;;20.51;100.00
12209;BME280;6167;43.080;25.634;2022-07-23T03:47:40;99605.31;;;20.64;100.00
12209;BME280;6167;43.080;25.634;2022-07-23T03:50:09;99594.25;;;20.78;100.00
12209;BME280;6167;43.080;25.634;2022-07-23T03:52:36;99595.16;;;21.19;100.00
12209;BME280;6167;43.080;25.634;2022-07-23T03:58:08;99605.84;;;21.80;100.00
12209;BME280;6167;43.080;25.634;2022-07-23T04:00:35;99608.66;;;21.88;100.00
12209;BME280;6167;43.080;25.634;2022-07-23T04:03:33;99603.22;;;22.18;100.00
12209;BME280;6167;43.080;25.634;2022-07-23T04:06:00;99605.31;;;22.53;100.00
12209;BME280;6167;43.080;25.634;2022-07-23T04:08:27;99606.16;;;22.83;100.00
12209;BME280;6167;43.080;25.634;2022-07-23T04:10:53;99605.09;;;23.03;100.00
12209;BME280;6167;43.080;25.634;2022-07-23T04:13:22;99609.41;;;23.23;95.34
12209;BME280;6167;43.080;25.634;2022-07-23T04:15:49;99612.41;;;23.57;93.33
12209;BME280;6167;43.080;25.634;2022-07-23T04:18:16;99615.63;;;23.88;86.32
12209;BME280;6167;43.080;25.634;2022-07-23T04:20:43;99616.25;;;24.18;85.99
12209;BME280;6167;43.080;25.634;2022-07-23T04:23:10;99610.19;;;24.51;81.29
12209;BME280;6167;43.080;25.634;2022-07-23T04:25:37;99611.75;;;24.62;81.90
12209;BME280;6167;43.080;25.634;2022-07-23T04:28:04;99606.06;;;24.91;80.68
12209;BME280;6167;43.080;25.634;2022-07-23T04:30:33;99608.50;;;25.28;75.01
12209;BME280;6167;43.080;25.634;2022-07-23T04:33:00;99603.59;;;25.65;71.16
12209;BME280;6167;43.080;25.634;2022-07-23T04:35:27;99594.38;;;25.92;68.59
12209;BME280;6167;43.080;25.634;2022-07-23T04:37:54;99609.97;;;26.23;67.51
12209;BME280;6167;43.080;25.634;2022-07-23T04:40:21;99606.59;;;26.21;66.20
12209;BME280;6167;43.080;25.634;2022-07-23T04:42:47;99609.19;;;26.39;65.14
12209;BME280;6167;43.080;25.634;2022-07-23T04:45:14;99615.81;;;26.52;64.53
12209;BME280;6167;43.080;25.634;2022-07-23T04:47:43;99595.81;;;26.45;64.10
12209;BME280;6167;43.080;25.634;2022-07-23T04:50:10;99613.94;;;26.77;62.35
12209;BME280;6167;43.080;25.634;2022-07-23T04:52:36;99615.28;;;26.73;62.70
12209;BME280;6167;43.080;25.634;2022-07-23T04:55:05;99606.13;;;26.98;62.33
12209;BME280;6167;43.080;25.634;2022-07-23T04:57:32;99614.00;;;27.32;59.93
12209;BME280;6167;43.080;25.634;2022-07-23T04:59:58;99612.94;;;27.42;59.17
12209;BME280;6167;43.080;25.634;2022-07-23T05:02:25;99591.22;;;27.81;58.25
12209;BME280;6167;43.080;25.634;2022-07-23T05:04:54;99611.63;;;28.30;55.75
12209;BME280;6167;43.080;25.634;2022-07-23T05:07:21;99611.38;;;28.63;53.97
12209;BME280;6167;43.080;25.634;2022-07-23T05:09:48;99619.44;;;28.94;54.75
12209;BME280;6167;43.080;25.634;2022-07-23T05:12:15;99621.47;;;29.29;54.21
12209;BME280;6167;43.080;25.634;2022-07-23T05:14:42;99619.56;;;29.59;52.31
12209;BME280;6167;43.080;25.634;2022-07-23T05:17:08;99618.88;;;30.01;50.65
12209;BME280;6167;43.080;25.634;2022-07-23T05:19:35;99602.78;;;30.28;49.56
12209;BME280;6167;43.080;25.634;2022-07-23T05:22:04;99609.63;;;30.60;47.22
12209;BME280;6167;43.080;25.634;2022-07-23T05:24:31;99603.41;;;31.00;46.25
12209;BME280;6167;43.080;25.634;2022-07-23T05:26:57;99614.22;;;31.43;44.89
12209;BME280;6167;43.080;25.634;2022-07-23T05:29:24;99608.47;;;31.66;44.59
12209;BME280;6167;43.080;25.634;2022-07-23T05:31:51;99614.69;;;31.94;42.25
12209;BME280;6167;43.080;25.634;2022-07-23T05:34:18;99615.53;;;32.01;43.37
12209;BME280;6167;43.080;25.634;2022-07-23T05:36:45;99607.97;;;31.97;43.00
12209;BME280;6167;43.080;25.634;2022-07-23T05:39:15;99611.47;;;32.38;44.37
12209;BME280;6167;43.080;25.634;2022-07-23T05:41:42;99599.94;;;32.76;40.53
12209;BME280;6167;43.080;25.634;2022-07-23T05:44:09;99616.09;;;33.10;41.11
12209;BME280;6167;43.080;25.634;2022-07-23T05:46:36;99607.03;;;33.36;40.67
12209;BME280;6167;43.080;25.634;2022-07-23T05:49:03;99605.81;;;33.77;38.57
12209;BME280;6167;43.080;25.634;2022-07-23T05:51:30;99600.50;;;33.89;38.30
12209;BME280;6167;43.080;25.634;2022-07-23T05:53:57;99605.41;;;34.18;37.57
12209;BME280;6167;43.080;25.634;2022-07-23T05:56:25;99604.81;;;34.47;36.63
12209;BME280;6167;43.080;25.634;2022-07-23T05:58:52;99602.13;;;34.66;36.94
12209;BME280;6167;43.080;25.634;2022-07-23T06:01:19;99608.25;;;34.68;37.26
12209;BME280;6167;43.080;25.634;2022-07-23T06:03:46;99601.41;;;34.77;36.75
12209;BME280;6167;43.080;25.634;2022-07-23T06:06:13;99601.22;;;34.78;36.59
12209;BME280;6167;43.080;25.634;2022-07-23T06:08:40;99593.19;;;35.02;35.89
12209;BME280;6167;43.080;25.634;2022-07-23T06:11:07;99598.88;;;35.43;35.21
12209;BME280;6167;43.080;25.634;2022-07-23T06:13:35;99594.53;;;35.72;34.43
12209;BME280;6167;43.080;25.634;2022-07-23T06:16:02;99606.63;;;36.01;34.16
12209;BME280;6167;43.080;25.634;2022-07-23T06:18:29;99595.53;;;36.08;34.86
12209;BME280;6167;43.080;25.634;2022-07-23T06:20:56;99600.09;;;36.32;34.49
12209;BME280;6167;43.080;25.634;2022-07-23T06:23:23;99598.22;;;35.96;34.48
12209;BME280;6167;43.080;25.634;2022-07-23T06:25:50;99590.53;;;35.87;34.42
12209;BME280;6167;43.080;25.634;2022-07-23T06:28:17;99593.00;;;35.58;34.03
12209;BME280;6167;43.080;25.634;2022-07-23T06:30:45;99595.34;;;35.55;35.77
12209;BME280;6167;43.080;25.634;2022-07-23T06:33:12;99597.50;;;35.89;34.35
12209;BME280;6167;43.080;25.634;2022-07-23T06:35:39;99605.91;;;36.24;34.14
12209;BME280;6167;43.080;25.634;2022-07-23T06:38:06;99594.56;;;36.32;33.41
12209;BME280;6167;43.080;25.634;2022-07-23T06:40:33;99594.81;;;36.31;33.77
12209;BME280;6167;43.080;25.634;2022-07-23T06:42:59;99603.31;;;36.41;33.58
12209;BME280;6167;43.080;25.634;2022-07-23T06:45:27;99591.53;;;35.74;33.98
12209;BME280;6167;43.080;25.634;2022-07-23T06:47:55;99592.22;;;36.17;34.42
12209;BME280;6167;43.080;25.634;2022-07-23T06:50:22;99592.44;;;36.46;34.60
12209;BME280;6167;43.080;25.634;2022-07-23T06:52:49;99593.50;;;36.75;34.69
12209;BME280;6167;43.080;25.634;2022-07-23T06:55:16;99593.25;;;36.76;35.03
12209;BME280;6167;43.080;25.634;2022-07-23T06:57:43;99586.78;;;37.06;34.47
12209;BME280;6167;43.080;25.634;2022-07-23T07:00:11;99581.13;;;37.01;34.86
12209;BME280;6167;43.080;25.634;2022-07-23T07:02:38;99577.16;;;37.43;32.55
12209;BME280;6167;43.080;25.634;2022-07-23T07:05:07;99577.59;;;37.64;33.80
12209;BME280;6167;43.080;25.634;2022-07-23T07:07:34;99578.06;;;38.12;33.69
12209;BME280;6167;43.080;25.634;2022-07-23T07:10:01;99577.81;;;38.59;31.21
12209;BME280;6167;43.080;25.634;2022-07-23T07:12:28;99568.97;;;38.96;31.20
12209;BME280;6167;43.080;25.634;2022-07-23T07:14:55;99569.47;;;39.09;30.61
12209;BME280;6167;43.080;25.634;2022-07-23T07:17:23;99578.13;;;39.35;30.54
12209;BME280;6167;43.080;25.634;2022-07-23T07:19:50;99563.19;;;39.14;30.82
12209;BME280;6167;43.080;25.634;2022-07-23T07:22:19;99566.19;;;39.12;30.60
12209;BME280;6167;43.080;25.634;2022-07-23T07:24:45;99563.81;;;39.60;29.58
12209;BME280;6167;43.080;25.634;2022-07-23T07:27:13;99568.94;;;39.95;29.54
12209;BME280;6167;43.080;25.634;2022-07-23T07:29:41;99567.66;;;40.02;28.89
12209;BME280;6167;43.080;25.634;2022-07-23T07:32:08;99564.50;;;40.21;28.63
12209;BME280;6167;43.080;25.634;2022-07-23T07:34:35;99565.97;;;40.28;28.60
12209;BME280;6167;43.080;25.634;2022-07-23T07:37:02;99563.34;;;40.16;28.56
12209;BME280;6167;43.080;25.634;2022-07-23T07:39:30;99562.78;;;40.41;28.29
12209;BME280;6167;43.080;25.634;2022-07-23T07:41:57;99566.97;;;40.44;29.36
12209;BME280;6167;43.080;25.634;2022-07-23T07:44:24;99561.94;;;40.73;27.56
12209;BME280;6167;43.080;25.634;2022-07-23T07:46:51;99552.34;;;40.53;27.53
12209;BME280;6167;43.080;25.634;2022-07-23T07:49:18;99546.28;;;40.57;28.34
12209;BME280;6167;43.080;25.634;2022-07-23T07:51:45;99548.09;;;40.41;28.69
12209;BME280;6167;43.080;25.634;2022-07-23T07:54:12;99544.50;;;40.40;27.51
12209;BME280;6167;43.080;25.634;2022-07-23T07:56:41;99544.66;;;40.93;28.56
12209;BME280;6167;43.080;25.634;2022-07-23T07:59:08;99536.75;;;41.16;27.57
12209;BME280;6167;43.080;25.634;2022-07-23T08:01:36;99542.09;;;40.49;29.16
12209;BME280;6167;43.080;25.634;2022-07-23T08:04:03;99539.84;;;40.78;28.50
12209;BME280;6167;43.080;25.634;2022-07-23T08:06:30;99539.97;;;39.54;29.03
12209;BME280;6167;43.080;25.634;2022-07-23T08:08:57;99542.75;;;39.15;29.42
12209;BME280;6167;43.080;25.634;2022-07-23T08:11:23;99537.84;;;39.61;28.87
12209;BME280;6167;43.080;25.634;2022-07-23T08:13:55;99543.41;;;40.14;29.13
12209;BME280;6167;43.080;25.634;2022-07-23T08:16:22;99541.69;;;40.67;27.80
12209;BME280;6167;43.080;25.634;2022-07-23T08:18:49;99532.09;;;40.80;28.10
12209;BME280;6167;43.080;25.634;2022-07-23T08:21:16;99530.66;;;41.14;27.83
12209;BME280;6167;43.080;25.634;2022-07-23T08:23:42;99532.25;;;40.68;27.52
12209;BME280;6167;43.080;25.634;2022-07-23T08:26:09;99521.28;;;40.78;28.14
12209;BME280;6167;43.080;25.634;2022-07-23T08:28:36;99521.66;;;40.60;27.82
12209;BME280;6167;43.080;25.634;2022-07-23T08:31:05;99526.88;;;40.51;27.56
12209;BME280;6167;43.080;25.634;2022-07-23T08:33:32;99522.34;;;40.40;27.69
12209;BME280;6167;43.080;25.634;2022-07-23T08:35:59;99517.78;;;40.93;27.76
12209;BME280;6167;43.080;25.634;2022-07-23T08:41:34;99522.72;;;40.86;27.69
12209;BME280;6167;43.080;25.634;2022-07-23T08:44:01;99516.75;;;40.03;27.95
12209;BME280;6167;43.080;25.634;2022-07-23T08:46:31;99516.34;;;40.48;27.41
12209;BME280;6167;43.080;25.634;2022-07-23T08:48:58;99514.16;;;40.93;26.83
12209;BME280;6167;43.080;25.634;2022-07-23T08:51:26;99513.00;;;41.31;25.66
12209;BME280;6167;43.080;25.634;2022-07-23T08:53:56;99517.34;;;41.89;25.88
12209;BME280;6167;43.080;25.634;2022-07-23T08:56:23;99514.56;;;41.84;25.40
12209;BME280;6167;43.080;25.634;2022-07-23T08:58:53;99511.00;;;40.42;26.72
12209;BME280;6167;43.080;25.634;2022-07-23T09:01:20;99527.41;;;40.48;27.15
12209;BME280;6167;43.080;25.634;2022-07-23T09:03:48;99506.59;;;41.25;26.33
12209;BME280;6167;43.080;25.634;2022-07-23T09:06:15;99513.97;;;41.67;25.25
12209;BME280;6167;43.080;25.634;2022-07-23T09:08:43;99511.75;;;41.69;25.54
12209;BME280;6167;43.080;25.634;2022-07-23T09:11:12;99527.34;;;41.17;25.79
12209;BME280;6167;43.080;25.634;2022-07-23T09:13:45;99511.91;;;41.32;26.27
12209;BME280;6167;43.080;25.634;2022-07-23T09:16:15;99512.59;;;41.69;25.95
12209;BME280;6167;43.080;25.634;2022-07-23T09:18:46;99507.88;;;41.80;25.27
12209;BME280;6167;43.080;25.634;2022-07-23T09:21:23;99506.50;;;41.82;25.62
12209;BME280;6167;43.080;25.634;2022-07-23T09:23:56;99500.47;;;42.21;25.09
12209;BME280;6167;43.080;25.634;2022-07-23T09:26:29;99501.03;;;42.13;24.26
12209;BME280;6167;43.080;25.634;2022-07-23T09:28:59;99505.16;;;41.90;23.77
12209;BME280;6167;43.080;25.634;2022-07-23T09:31:33;99498.41;;;41.61;23.10
12209;BME280;6167;43.080;25.634;2022-07-23T09:34:12;99499.28;;;41.66;23.66
12209;BME280;6167;43.080;25.634;2022-07-23T09:36:41;99500.44;;;41.91;23.53
12209;BME280;6167;43.080;25.634;2022-07-23T09:39:08;99496.13;;;41.42;24.22
12209;BME280;6167;43.080;25.634;2022-07-23T09:41:37;99494.31;;;41.73;24.00
12209;BME280;6167;43.080;25.634;2022-07-23T09:44:14;99497.97;;;42.09;24.13
12209;BME280;6167;43.080;25.634;2022-07-23T09:46:43;99490.22;;;42.11;23.69
12209;BME280;6167;43.080;25.634;2022-07-23T09:49:13;99489.34;;;42.01;23.16
12209;BME280;6167;43.080;25.634;2022-07-23T09:51:50;99490.78;;;42.49;23.44
12209;BME280;6167;43.080;25.634;2022-07-23T09:54:33;99481.31;;;42.60;23.63
12209;BME280;6167;43.080;25.634;2022-07-23T09:57:03;99479.81;;;41.61;23.52
12209;BME280;6167;43.080;25.634;2022-07-23T09:59:32;99475.97;;;41.67;22.94
12209;BME280;6167;43.080;25.634;2022-07-23T10:02:00;99484.91;;;42.05;23.55
12209;BME280;6167;43.080;25.634;2022-07-23T10:04:28;99481.56;;;41.77;24.48
12209;BME280;6167;43.080;25.634;2022-07-23T10:06:58;99482.88;;;41.60;24.24
12209;BME280;6167;43.080;25.634;2022-07-23T10:09:28;99477.38;;;41.85;23.37
12209;BME280;6167;43.080;25.634;2022-07-23T10:11:57;99473.84;;;42.15;23.66
12209;BME280;6167;43.080;25.634;2022-07-23T10:14:32;99468.56;;;42.44;23.09
12209;BME280;6167;43.080;25.634;2022-07-23T10:17:00;99475.03;;;41.36;24.39
12209;BME280;6167;43.080;25.634;2022-07-23T10:19:27;99468.63;;;40.73;24.99
12209;BME280;6167;43.080;25.634;2022-07-23T10:21:58;99456.06;;;41.13;25.30
12209;BME280;6167;43.080;25.634;2022-07-23T10:24:44;99462.78;;;41.27;24.04
12209;BME280;6167;43.080;25.634;2022-07-23T10:27:31;99461.81;;;41.79;22.92
12209;BME280;6167;43.080;25.634;2022-07-23T10:30:05;99460.03;;;41.37;23.00
12209;BME280;6167;43.080;25.634;2022-07-23T10:32:40;99450.25;;;41.14;22.97
12209;BME280;6167;43.080;25.634;2022-07-23T10:35:15;99450.81;;;41.16;23.31
12209;BME280;6167;43.080;25.634;2022-07-23T10:37:49;99446.69;;;41.24;23.33
12209;BME280;6167;43.080;25.634;2022-07-23T10:40:19;99445.50;;;42.03;23.91
12209;BME280;6167;43.080;25.634;2022-07-23T10:42:49;99440.22;;;42.57;22.48
12209;BME280;6167;43.080;25.634;2022-07-23T10:45:25;99432.16;;;42.40;21.89
12209;BME280;6167;43.080;25.634;2022-07-23T10:47:53;99428.56;;;42.09;23.00
12209;BME280;6167;43.080;25.634;2022-07-23T10:50:21;99428.16;;;41.35;23.96
12209;BME280;6167;43.080;25.634;2022-07-23T10:53:18;99425.72;;;41.59;23.50
12209;BME280;6167;43.080;25.634;2022-07-23T10:55:48;99429.03;;;41.50;23.36
12209;BME280;6167;43.080;25.634;2022-07-23T10:58:23;99433.72;;;41.35;23.81
12209;BME280;6167;43.080;25.634;2022-07-23T11:01:34;99421.22;;;41.32;23.56
12209;BME280;6167;43.080;25.634;2022-07-23T11:04:02;99413.94;;;41.16;22.46
12209;BME280;6167;43.080;25.634;2022-07-23T11:07:08;99417.34;;;41.43;22.29
12209;BME280;6167;43.080;25.634;2022-07-23T11:09:42;99417.72;;;41.00;22.50
12209;BME280;6167;43.080;25.634;2022-07-23T11:12:34;99412.84;;;40.65;23.49
12209;BME280;6167;43.080;25.634;2022-07-23T11:15:05;99417.03;;;40.72;22.67
12209;BME280;6167;43.080;25.634;2022-07-23T11:17:34;99411.94;;;40.49;22.82
12209;BME280;6167;43.080;25.634;2022-07-23T11:20:17;99412.22;;;40.58;23.42
12209;BME280;6167;43.080;25.634;2022-07-23T11:22:50;99409.94;;;40.44;23.15
12209;BME280;6167;43.080;25.634;2022-07-23T11:25:35;99407.47;;;40.11;23.60
12209;BME280;6167;43.080;25.634;2022-07-23T11:28:15;99408.63;;;40.52;23.40
12209;BME280;6167;43.080;25.634;2022-07-23T11:30:44;99412.47;;;40.98;23.25
12209;BME280;6167;43.080;25.634;2022-07-23T11:33:19;99407.44;;;40.95;22.29
12209;BME280;6167;43.080;25.634;2022-07-23T11:35:49;99400.63;;;41.18;22.23
12209;BME280;6167;43.080;25.634;2022-07-23T11:38:18;99405.69;;;41.41;22.91
12209;BME280;6167;43.080;25.634;2022-07-23T11:40:48;99401.81;;;41.47;21.57
12209;BME280;6167;43.080;25.634;2022-07-23T11:43:17;99410.13;;;41.37;22.33
12209;BME280;6167;43.080;25.634;2022-07-23T11:45:45;99387.84;;;41.07;22.20
12209;BME280;6167;43.080;25.634;2022-07-23T11:48:17;99396.88;;;40.82;22.95
12209;BME280;6167;43.080;25.634;2022-07-23T11:50:44;99393.72;;;40.63;22.54
12209;BME280;6167;43.080;25.634;2022-07-23T11:53:12;99395.50;;;40.37;21.98
12209;BME280;6167;43.080;25.634;2022-07-23T11:55:39;99393.91;;;40.09;21.81
12209;BME280;6167;43.080;25.634;2022-07-23T11:58:10;99393.19;;;39.92;21.60
12209;BME280;6167;43.080;25.634;2022-07-23T12:00:40;99385.47;;;39.94;22.58
12209;BME280;6167;43.080;25.634;2022-07-23T12:03:07;99383.06;;;40.03;23.97
12209;BME280;6167;43.080;25.634;2022-07-23T12:05:36;99386.75;;;40.18;22.98
12209;BME280;6167;43.080;25.634;2022-07-23T12:08:05;99382.31;;;40.17;22.41
12209;BME280;6167;43.080;25.634;2022-07-23T12:10:35;99379.91;;;40.26;21.67
12209;BME280;6167;43.080;25.634;2022-07-23T12:13:04;99380.22;;;40.30;21.38
12209;BME280;6167;43.080;25.634;2022-07-23T12:15:34;99377.75;;;40.33;21.83
12209;BME280;6167;43.080;25.634;2022-07-23T12:18:05;99371.84;;;40.25;22.35
12209;BME280;6167;43.080;25.634;2022-07-23T12:20:34;99371.78;;;40.14;21.46
12209;BME280;6167;43.080;25.634;2022-07-23T12:23:04;99360.97;;;40.08;22.24
12209;BME280;6167;43.080;25.634;2022-07-23T12:25:33;99369.66;;;40.27;22.21
12209;BME280;6167;43.080;25.634;2022-07-23T12:28:03;99369.94;;;40.25;22.33
12209;BME280;6167;43.080;25.634;2022-07-23T12:30:37;99357.75;;;40.26;21.80
12209;BME280;6167;43.080;25.634;2022-07-23T12:33:05;99357.22;;;40.76;21.45
12209;BME280;6167;43.080;25.634;2022-07-23T12:35:34;99352.28;;;40.83;21.48
12209;BME280;6167;43.080;25.634;2022-07-23T12:38:04;99355.72;;;40.59;21.55
12209;BME280;6167;43.080;25.634;2022-07-23T12:40:33;99349.53;;;40.36;22.10
12209;BME280;6167;43.080;25.634;2022-07-23T12:43:03;99349.50;;;40.31;22.29
12209;BME280;6167;43.080;25.634;2022-07-23T12:45:44;99338.88;;;40.18;22.51
12209;BME280;6167;43.080;25.634;2022-07-23T12:48:23;99354.91;;;40.11;23.13
12209;BME280;6167;43.080;25.634;2022-07-23T12:50:55;99351.03;;;40.17;23.47
12209;BME280;6167;43.080;25.634;2022-07-23T12:53:25;99343.59;;;39.85;23.09
12209;BME280;6167;43.080;25.634;2022-07-23T12:55:58;99341.56;;;39.76;23.53
12209;BME280;6167;43.080;25.634;2022-07-23T12:58:26;99340.66;;;39.38;23.00
12209;BME280;6167;43.080;25.634;2022-07-23T13:00:59;99338.91;;;39.27;22.61
12209;BME280;6167;43.080;25.634;2022-07-23T13:03:33;99350.22;;;39.53;22.89
12209;BME280;6167;43.080;25.634;2022-07-23T13:06:02;99334.00;;;39.07;23.36
12209;BME280;6167;43.080;25.634;2022-07-23T13:08:32;99344.84;;;39.14;23.17
12209;BME280;6167;43.080;25.634;2022-07-23T13:11:00;99329.94;;;39.15;22.77
12209;BME280;6167;43.080;25.634;2022-07-23T13:13:29;99339.06;;;38.94;23.00
12209;BME280;6167;43.080;25.634;2022-07-23T13:15:58;99326.91;;;38.95;22.66